createdAt,value
2023-02-12T00:00:45.108Z,94.90
2023-02-12T00:02:50.732Z,94.90
2023-02-12T00:04:55.824Z,94.80
2023-02-12T00:07:00.986Z,94.90
2023-02-12T00:09:06.875Z,94.90
2023-02-12T00:11:19.001Z,95.00
2023-02-12T00:13:23.966Z,94.90
2023-02-12T00:15:29.201Z,94.90
2023-02-12T00:17:34.135Z,95.00
2023-02-12T00:19:39.568Z,94.90
2023-02-12T00:21:44.459Z,94.90
2023-02-12T00:23:49.712Z,94.90
2023-02-12T00:25:55.225Z,95.10
2023-02-12T00:28:03.210Z,95.10
2023-02-12T00:30:10.552Z,95.00
2023-02-12T00:32:19.451Z,94.90
2023-02-12T00:34:24.353Z,95.00
2023-02-12T00:36:32.188Z,94.90
2023-02-12T00:38:38.152Z,94.90
2023-02-12T00:40:43.081Z,94.90
2023-02-12T00:42:48.422Z,94.80
2023-02-12T00:44:55.864Z,94.80
2023-02-12T00:47:02.764Z,94.90
2023-02-12T00:49:07.686Z,94.80
2023-02-12T00:51:14.114Z,94.80
2023-02-12T00:53:19.821Z,94.80
2023-02-12T00:55:25.011Z,94.90
2023-02-12T00:57:30.678Z,94.80
2023-02-12T00:59:36.810Z,94.80
2023-02-12T01:01:44.795Z,94.80
2023-02-12T01:03:49.739Z,94.70
2023-02-12T01:05:55.177Z,94.50
2023-02-12T01:08:00.361Z,94.50
2023-02-12T01:10:05.635Z,94.50
2023-02-12T01:12:13.807Z,94.40
2023-02-12T01:14:18.723Z,94.50
2023-02-12T01:16:27.811Z,94.60
2023-02-12T01:18:37.162Z,94.70
2023-02-12T01:20:43.116Z,94.60
2023-02-12T01:22:48.231Z,94.70
2023-02-12T01:24:53.199Z,94.70
2023-02-12T01:26:58.097Z,94.80
2023-02-12T01:29:06.402Z,94.80
2023-02-12T01:31:13.577Z,94.70
2023-02-12T01:33:18.694Z,94.70
2023-02-12T01:35:26.532Z,94.70
2023-02-12T01:37:31.837Z,94.60
2023-02-12T01:39:36.885Z,94.70
2023-02-12T01:41:45.520Z,94.50
2023-02-12T01:44:15.541Z,94.30
2023-02-12T01:46:20.483Z,94.40
2023-02-12T01:48:28.595Z,94.40
2023-02-12T01:50:36.692Z,94.40
2023-02-12T01:52:49.280Z,94.50
2023-02-12T01:54:57.301Z,94.60
2023-02-12T01:57:03.274Z,94.40
2023-02-12T01:59:09.106Z,94.40
2023-02-12T02:01:21.003Z,94.50
2023-02-12T02:03:26.179Z,94.40
2023-02-12T02:05:45.138Z,94.50
2023-02-12T02:07:50.174Z,94.20
2023-02-12T02:09:55.666Z,94.40
2023-02-12T02:12:13.404Z,94.50
2023-02-12T02:14:30.820Z,94.80
2023-02-12T02:16:39.683Z,94.50
2023-02-12T02:18:48.893Z,94.30
2023-02-12T02:21:48.700Z,94.30
2023-02-12T02:24:28.946Z,94.30
2023-02-12T02:27:25.857Z,94.40
2023-02-12T02:30:15.046Z,94.40
2023-02-12T02:32:26.281Z,94.20
2023-02-12T02:34:41.243Z,94.20
2023-02-12T02:37:00.528Z,94.20
2023-02-12T02:39:11.812Z,94.20
2023-02-12T02:41:23.838Z,94.10
2023-02-12T02:43:36.054Z,94.20
2023-02-12T02:45:49.275Z,94.20
2023-02-12T02:47:57.988Z,94.40
2023-02-12T02:50:10.584Z,94.40
2023-02-12T02:52:21.796Z,94.30
2023-02-12T02:54:33.546Z,94.50
2023-02-12T02:56:45.164Z,94.40
2023-02-12T02:58:55.860Z,94.50
2023-02-12T03:01:08.142Z,94.70
2023-02-12T03:03:22.828Z,94.70
2023-02-12T03:05:34.032Z,94.50
2023-02-12T03:07:45.069Z,94.40
2023-02-12T03:09:56.912Z,94.40
2023-02-12T03:12:07.657Z,94.50
2023-02-12T03:14:19.018Z,94.60
2023-02-12T03:16:30.777Z,94.40
2023-02-12T03:18:42.985Z,94.50
2023-02-12T03:20:54.020Z,94.60
2023-02-12T03:23:04.773Z,94.80
2023-02-12T03:25:17.522Z,94.50
2023-02-12T03:27:29.924Z,94.50
2023-02-12T03:29:35.571Z,94.60
2023-02-12T03:32:02.485Z,94.60
2023-02-12T03:34:18.185Z,94.50
2023-02-12T03:36:35.110Z,94.60
2023-02-12T03:38:45.549Z,94.60
2023-02-12T03:40:56.508Z,94.40
2023-02-12T03:43:07.877Z,94.50
2023-02-12T03:45:25.684Z,94.50
2023-02-12T03:47:46.716Z,94.30
2023-02-12T03:50:05.349Z,94.50
2023-02-12T03:52:10.447Z,94.40
2023-02-12T03:54:19.341Z,94.30
2023-02-12T03:56:31.371Z,94.20
2023-02-12T03:58:40.376Z,94.30
2023-02-12T04:00:48.882Z,94.30
2023-02-12T04:02:58.172Z,94.00
2023-02-12T04:05:08.405Z,94.20
2023-02-12T04:07:14.455Z,94.40
2023-02-12T04:09:21.222Z,94.20
2023-02-12T04:11:36.780Z,94.20
2023-02-12T04:13:53.232Z,94.20
2023-02-12T04:16:16.566Z,94.20
2023-02-12T04:18:34.173Z,94.30
2023-02-12T04:20:55.835Z,94.10
2023-02-12T04:23:14.328Z,94.00
2023-02-12T04:25:43.947Z,93.90
2023-02-12T04:27:59.215Z,94.00
2023-02-12T04:30:10.077Z,94.10
2023-02-12T04:32:21.263Z,93.90
2023-02-12T04:34:37.257Z,94.10
2023-02-12T04:36:52.641Z,94.00
2023-02-12T04:39:03.719Z,94.10
2023-02-12T04:41:09.524Z,93.90
2023-02-12T04:43:14.480Z,93.80
2023-02-12T04:45:24.644Z,94.00
2023-02-12T04:47:30.037Z,94.00
2023-02-12T04:49:37.515Z,94.00
2023-02-12T04:51:42.386Z,94.10
2023-02-12T04:53:47.691Z,94.10
2023-02-12T04:55:52.872Z,94.00
2023-02-12T04:57:57.960Z,94.20
2023-02-12T05:00:05.043Z,94.10
2023-02-12T05:02:10.459Z,94.10
2023-02-12T05:04:17.812Z,94.10
2023-02-12T05:06:25.275Z,93.90
2023-02-12T05:08:30.629Z,93.90
2023-02-12T05:10:35.518Z,94.00
2023-02-12T05:12:40.400Z,94.10
2023-02-12T05:14:45.850Z,94.00
2023-02-12T05:16:50.728Z,93.80
2023-02-12T05:18:55.606Z,93.80
2023-02-12T05:21:01.423Z,94.00
2023-02-12T05:23:09.358Z,94.10
2023-02-12T05:25:14.388Z,94.10
2023-02-12T05:27:19.242Z,93.90
2023-02-12T05:29:24.725Z,93.80
2023-02-12T05:31:29.882Z,94.00
2023-02-12T05:33:35.672Z,94.30
2023-02-12T05:35:40.504Z,94.10
2023-02-12T05:37:46.038Z,94.00
2023-02-12T05:39:54.675Z,94.00
2023-02-12T05:41:59.549Z,94.00
2023-02-12T05:44:05.629Z,94.10
2023-02-12T05:46:11.575Z,94.00
2023-02-12T05:48:17.281Z,94.00
2023-02-12T05:50:23.074Z,94.00
2023-02-12T05:52:37.793Z,93.90
2023-02-12T05:54:42.666Z,93.90
2023-02-12T05:56:51.222Z,94.10
2023-02-12T05:59:00.016Z,94.20
2023-02-12T06:01:04.923Z,94.10
2023-02-12T06:03:09.751Z,94.20
2023-02-12T06:05:15.139Z,94.30
2023-02-12T06:07:20.016Z,94.40
2023-02-12T06:09:26.217Z,94.50
2023-02-12T06:11:31.571Z,94.50
2023-02-12T06:13:39.148Z,94.50
2023-02-12T06:15:43.988Z,94.50
2023-02-12T06:17:49.421Z,94.50
2023-02-12T06:19:54.243Z,94.80
2023-02-12T06:21:59.081Z,94.80
2023-02-12T06:24:04.776Z,95.00
2023-02-12T06:26:09.840Z,95.00
2023-02-12T06:28:14.685Z,94.80
2023-02-12T06:30:22.945Z,94.70
2023-02-12T06:32:27.926Z,94.80
2023-02-12T06:34:32.783Z,94.70
2023-02-12T06:36:40.288Z,94.80
2023-02-12T06:38:45.428Z,94.90
2023-02-12T06:40:50.297Z,94.90
2023-02-12T06:42:55.123Z,95.00
2023-02-12T06:44:59.945Z,95.00
2023-02-12T06:47:07.569Z,95.00
2023-02-12T06:49:16.662Z,95.00
2023-02-12T06:51:23.528Z,95.00
2023-02-12T06:53:28.540Z,94.90
2023-02-12T06:55:33.424Z,95.20
2023-02-12T06:57:38.472Z,95.10
2023-02-12T06:59:43.340Z,95.10
2023-02-12T07:01:48.215Z,95.10
2023-02-12T07:03:58.255Z,95.00
2023-02-12T07:06:03.101Z,94.90
2023-02-12T07:08:07.939Z,95.00
2023-02-12T07:10:13.725Z,95.00
2023-02-12T07:12:18.696Z,95.00
2023-02-12T07:14:23.528Z,95.00
2023-02-12T07:16:28.917Z,94.90
2023-02-12T07:18:33.829Z,94.90
2023-02-12T07:20:41.289Z,94.90
2023-02-12T07:22:46.189Z,94.90
2023-02-12T07:24:51.938Z,95.00
2023-02-12T07:26:56.851Z,95.00
2023-02-12T07:29:01.955Z,95.00
2023-02-12T07:31:11.703Z,95.00
2023-02-12T07:33:16.610Z,95.10
2023-02-12T07:35:21.666Z,95.10
2023-02-12T07:37:29.163Z,95.10
2023-02-12T07:39:33.994Z,95.10
2023-02-12T07:41:40.196Z,95.10
2023-02-12T07:43:47.737Z,95.10
2023-02-12T07:45:53.283Z,95.10
2023-02-12T07:47:58.961Z,95.20
2023-02-12T07:50:03.860Z,95.20
2023-02-12T07:52:09.084Z,95.30
2023-02-12T07:54:19.094Z,95.30
2023-02-12T07:56:29.579Z,95.30
2023-02-12T07:58:34.498Z,95.20
2023-02-12T08:00:40.377Z,95.20
2023-02-12T08:02:45.380Z,95.20
2023-02-12T08:04:50.573Z,95.10
2023-02-12T08:06:58.631Z,95.00
2023-02-12T08:09:07.089Z,95.00
2023-02-12T08:11:18.522Z,95.00
2023-02-12T08:13:23.346Z,95.00
2023-02-12T08:15:28.785Z,94.90
2023-02-12T08:17:34.700Z,94.90
2023-02-12T08:19:39.837Z,95.00
2023-02-12T08:21:45.068Z,94.80
2023-02-12T08:23:52.129Z,95.00
2023-02-12T08:25:57.340Z,94.80
2023-02-12T08:28:04.985Z,94.90
2023-02-12T08:30:15.387Z,94.90
2023-02-12T08:32:20.394Z,94.90
2023-02-12T08:34:27.989Z,94.80
2023-02-12T08:36:39.400Z,94.80
2023-02-12T08:38:46.828Z,94.60
2023-02-12T08:40:51.684Z,94.70
2023-02-12T08:42:56.534Z,94.50
2023-02-12T08:45:04.007Z,94.40
2023-02-12T08:47:10.181Z,94.60
2023-02-12T08:49:18.412Z,94.50
2023-02-12T08:51:26.245Z,94.60
2023-02-12T08:53:31.077Z,94.50
2023-02-12T08:55:36.950Z,94.30
2023-02-12T08:57:41.996Z,94.30
2023-02-12T08:59:47.310Z,94.10
2023-02-12T09:01:56.691Z,94.10
2023-02-12T09:04:02.420Z,93.70
2023-02-12T09:06:10.426Z,93.70
2023-02-12T09:08:15.279Z,93.70
2023-02-12T09:10:20.708Z,93.60
2023-02-12T09:12:26.175Z,93.40
2023-02-12T09:14:31.146Z,93.30
2023-02-12T09:16:40.427Z,93.50
2023-02-12T09:18:48.451Z,93.30
2023-02-12T09:20:53.524Z,93.30
2023-02-12T09:22:58.372Z,93.10
2023-02-12T09:25:03.423Z,93.30
2023-02-12T09:27:08.254Z,93.10
2023-02-12T09:29:13.078Z,93.00
2023-02-12T09:31:21.061Z,92.90
2023-02-12T09:33:26.055Z,92.50
2023-02-12T09:35:33.812Z,92.30
2023-02-12T09:37:39.161Z,91.60
2023-02-12T09:39:45.014Z,92.60
2023-02-12T09:42:24.021Z,92.30
2023-02-12T09:44:39.141Z,91.80
2023-02-12T09:46:52.465Z,91.40
2023-02-12T09:49:03.388Z,91.10
2023-02-12T09:51:12.616Z,92.20
2023-02-12T09:53:22.614Z,92.10
2023-02-12T09:55:32.620Z,91.40
2023-02-12T09:57:40.217Z,91.30
2023-02-12T09:59:51.947Z,90.20
2023-02-12T10:01:56.849Z,91.00
2023-02-12T10:04:02.961Z,90.60
2023-02-12T10:06:16.823Z,90.00
2023-02-12T10:08:46.413Z,90.40
2023-02-12T10:10:56.607Z,89.90
2023-02-12T10:13:07.494Z,90.50
2023-02-12T10:15:29.796Z,89.70
2023-02-12T10:17:45.286Z,89.90
2023-02-12T10:20:40.343Z,88.20
2023-02-12T10:23:03.153Z,87.60
2023-02-12T10:25:21.023Z,89.00
2023-02-12T10:27:39.734Z,88.50
2023-02-12T10:29:47.706Z,88.70
2023-02-12T10:34:26.501Z,88.30
2023-02-12T10:36:44.294Z,88.20
2023-02-12T10:38:58.189Z,88.00
2023-02-12T10:41:03.419Z,88.30
2023-02-12T10:43:10.330Z,87.60
2023-02-12T10:45:18.050Z,88.20
2023-02-12T10:47:27.444Z,87.80
2023-02-12T10:49:35.367Z,88.00
2023-02-12T10:51:57.398Z,88.50
2023-02-12T10:54:44.106Z,88.90
2023-02-12T10:56:49.079Z,87.70
2023-02-12T10:59:00.533Z,87.60
2023-02-12T11:01:06.954Z,87.60
2023-02-12T11:03:25.166Z,87.50
2023-02-12T11:05:35.630Z,88.50
2023-02-12T11:07:52.650Z,87.20
2023-02-12T11:10:00.602Z,87.40
2023-02-12T11:12:06.680Z,86.90
2023-02-12T11:14:22.864Z,87.30
2023-02-12T11:16:33.662Z,87.40
2023-02-12T11:18:39.916Z,88.00
2023-02-12T11:20:54.033Z,87.50
2023-02-12T11:23:03.353Z,86.20
2023-02-12T11:25:19.680Z,87.40
2023-02-12T11:27:32.890Z,86.90
2023-02-12T11:29:37.558Z,86.20
2023-02-12T11:31:43.033Z,87.40
2023-02-12T11:33:48.253Z,86.50
2023-02-12T11:36:00.941Z,85.50
2023-02-12T11:38:07.470Z,86.00
2023-02-12T11:40:23.838Z,85.20
2023-02-12T11:42:33.543Z,85.40
2023-02-12T11:44:42.645Z,87.00
2023-02-12T11:46:52.227Z,86.50
2023-02-12T11:49:01.301Z,87.00
2023-02-12T11:51:10.099Z,86.20
2023-02-12T11:53:25.589Z,86.40
2023-02-12T11:55:37.630Z,87.40
2023-02-12T11:57:48.681Z,86.80
2023-02-12T11:59:54.921Z,87.80
2023-02-12T12:02:05.251Z,88.30
2023-02-12T12:04:15.593Z,87.80
2023-02-12T12:06:35.316Z,87.20
2023-02-12T12:08:46.889Z,87.70
2023-02-12T12:11:03.793Z,88.20
2023-02-12T12:13:15.800Z,87.70
2023-02-12T12:15:38.953Z,87.60
2023-02-12T12:18:02.555Z,87.80
2023-02-12T12:20:12.854Z,86.30
2023-02-12T12:22:41.196Z,86.00
2023-02-12T12:24:54.579Z,85.80
2023-02-12T12:27:14.330Z,86.10
2023-02-12T12:29:26.926Z,86.20
2023-02-12T12:31:38.572Z,85.20
2023-02-12T12:33:49.652Z,86.20
2023-02-12T12:36:15.383Z,86.00
2023-02-12T12:38:33.748Z,85.60
2023-02-12T12:40:55.510Z,85.30
2023-02-12T12:43:15.631Z,87.10
2023-02-12T12:45:50.929Z,87.60
2023-02-12T12:48:12.861Z,87.10
2023-02-12T12:50:38.457Z,86.90
2023-02-12T12:53:06.867Z,86.90
2023-02-12T12:55:39.081Z,87.60
2023-02-12T12:57:59.107Z,87.00
2023-02-12T13:00:36.365Z,86.50
2023-02-12T13:03:29.261Z,87.40
2023-02-12T13:06:01.595Z,87.10
2023-02-12T13:08:16.904Z,87.10
2023-02-12T13:10:35.543Z,87.50
2023-02-12T13:13:03.907Z,87.50
2023-02-12T13:15:21.450Z,87.20
2023-02-12T13:17:34.523Z,87.60
2023-02-12T13:19:55.006Z,87.20
2023-02-12T13:22:11.131Z,86.40
2023-02-12T13:24:29.513Z,86.40
2023-02-12T13:26:52.813Z,86.40
2023-02-12T13:29:04.996Z,85.60
2023-02-12T13:31:33.700Z,85.70
2023-02-12T13:33:47.710Z,86.40
2023-02-12T13:35:59.490Z,85.60
2023-02-12T13:38:09.433Z,85.50
2023-02-12T13:40:20.636Z,85.80
2023-02-12T13:42:50.830Z,86.10
2023-02-12T13:45:10.386Z,86.10
2023-02-12T13:47:24.025Z,86.80
2023-02-12T13:49:44.783Z,87.00
2023-02-12T13:51:53.224Z,86.90
2023-02-12T13:54:26.185Z,86.60
2023-02-12T13:56:43.074Z,86.70
2023-02-12T13:58:55.892Z,87.00
2023-02-12T14:01:03.795Z,87.60
2023-02-12T14:03:12.746Z,87.90
2023-02-12T14:05:33.627Z,88.20
2023-02-12T14:07:49.251Z,87.80
2023-02-12T14:10:08.031Z,87.50
2023-02-12T14:12:18.040Z,87.20
2023-02-12T14:14:30.703Z,87.20
2023-02-12T14:16:43.489Z,87.40
2023-02-12T14:18:48.397Z,87.50
2023-02-12T14:21:42.391Z,87.80
2023-02-12T14:23:47.895Z,87.60
2023-02-12T14:26:05.363Z,87.50
2023-02-12T14:28:29.088Z,88.00
2023-02-12T14:30:40.327Z,88.40
2023-02-12T14:33:11.612Z,88.30
2023-02-12T14:35:35.806Z,88.50
2023-02-12T14:37:43.273Z,88.60
2023-02-12T14:39:48.329Z,88.70
2023-02-12T14:41:57.276Z,89.00
2023-02-12T14:44:47.394Z,89.00
2023-02-12T14:46:54.949Z,88.70
2023-02-12T14:49:05.663Z,88.70
2023-02-12T14:51:22.752Z,88.40
2023-02-12T14:53:35.648Z,88.40
2023-02-12T14:55:44.649Z,88.30
2023-02-12T14:57:50.527Z,88.40
2023-02-12T15:00:00.697Z,88.20
2023-02-12T15:02:06.783Z,88.20
2023-02-12T15:04:20.260Z,88.40
2023-02-12T15:06:32.739Z,88.70
2023-02-12T15:08:49.602Z,89.30
2023-02-12T15:11:02.759Z,89.10
2023-02-12T15:13:26.215Z,89.20
2023-02-12T15:15:37.461Z,89.30
2023-02-12T15:17:48.436Z,89.50
2023-02-12T15:20:02.148Z,89.20
2023-02-12T15:22:15.359Z,89.60
2023-02-12T15:24:27.849Z,89.70
2023-02-12T15:26:36.808Z,89.60
2023-02-12T15:28:43.551Z,89.40
2023-02-12T15:30:49.402Z,89.40
2023-02-12T15:32:54.791Z,89.50
2023-02-12T15:35:00.114Z,89.60
2023-02-12T15:37:08.655Z,90.10
2023-02-12T15:39:23.035Z,90.10
2023-02-12T15:41:41.885Z,90.00
2023-02-12T15:43:47.327Z,90.10
2023-02-12T15:45:55.553Z,90.40
2023-02-12T15:48:13.063Z,90.60
2023-02-12T15:50:19.720Z,90.70
2023-02-12T15:52:34.614Z,90.70
2023-02-12T15:54:40.441Z,90.90
2023-02-12T15:56:48.465Z,90.90
2023-02-12T15:58:55.579Z,90.90
2023-02-12T16:01:06.166Z,90.50
2023-02-12T16:03:25.840Z,90.60
2023-02-12T16:05:31.975Z,91.00
2023-02-12T16:07:39.929Z,91.10
2023-02-12T16:09:45.897Z,91.00
2023-02-12T16:11:53.537Z,90.90
2023-02-12T16:14:03.090Z,90.90
2023-02-12T16:16:18.617Z,91.10
2023-02-12T16:18:28.743Z,91.30
2023-02-12T16:20:34.981Z,91.50
2023-02-12T16:22:42.914Z,91.50
2023-02-12T16:24:53.050Z,91.40
2023-02-12T16:27:03.718Z,91.50
2023-02-12T16:29:08.718Z,91.40
2023-02-12T16:31:17.286Z,91.50
2023-02-12T16:33:37.114Z,91.70
2023-02-12T16:35:43.022Z,92.00
2023-02-12T16:37:51.291Z,92.20
2023-02-12T16:40:26.692Z,92.30
2023-02-12T16:42:34.780Z,92.20
2023-02-12T16:44:39.643Z,92.40
2023-02-12T16:46:50.705Z,92.30
2023-02-12T16:48:59.464Z,92.30
2023-02-12T16:51:06.294Z,92.30
2023-02-12T16:53:43.111Z,92.30
2023-02-12T16:55:48.056Z,92.50
2023-02-12T16:57:55.555Z,92.30
2023-02-12T17:00:00.422Z,92.10
2023-02-12T17:02:13.056Z,92.10
2023-02-12T17:04:18.979Z,92.10
2023-02-12T17:06:27.638Z,92.20
2023-02-12T17:08:32.594Z,92.30
2023-02-12T17:10:37.474Z,92.40
2023-02-12T17:12:48.710Z,92.50
2023-02-12T17:14:57.179Z,92.60
2023-02-12T17:17:02.136Z,92.20
2023-02-12T17:19:07.044Z,92.30
2023-02-12T17:21:22.899Z,92.50
2023-02-12T17:23:28.950Z,92.30
2023-02-12T17:25:36.206Z,92.60
2023-02-12T17:27:41.399Z,92.70
2023-02-12T17:29:46.550Z,92.70
2023-02-12T17:31:55.995Z,92.70
2023-02-12T17:34:01.701Z,92.70
2023-02-12T17:36:07.634Z,92.70
2023-02-12T17:38:12.686Z,92.80
2023-02-12T17:40:18.102Z,92.70
2023-02-12T17:42:23.062Z,92.70
2023-02-12T17:44:28.094Z,92.80
2023-02-12T17:46:33.908Z,92.80
2023-02-12T17:48:41.369Z,92.80
2023-02-12T17:50:46.950Z,92.60
2023-02-12T17:52:52.033Z,92.80
2023-02-12T17:54:56.911Z,92.30
2023-02-12T17:57:01.866Z,92.30
2023-02-12T17:59:07.248Z,92.30
2023-02-12T18:01:14.961Z,92.70
2023-02-12T18:03:20.105Z,92.50
2023-02-12T18:05:27.800Z,92.30
2023-02-12T18:07:36.363Z,92.40
2023-02-12T18:09:41.338Z,92.60
2023-02-12T18:11:46.472Z,92.50
2023-02-12T18:13:55.722Z,92.40
2023-02-12T18:16:01.359Z,92.50
2023-02-12T18:18:06.800Z,92.70
2023-02-12T18:20:14.134Z,92.50
2023-02-12T18:22:22.179Z,92.50
2023-02-12T18:24:27.099Z,92.50
2023-02-12T18:26:31.985Z,92.70
2023-02-12T18:28:37.432Z,92.70
2023-02-12T18:30:43.816Z,93.00
2023-02-12T18:32:48.863Z,92.80
2023-02-12T18:34:54.080Z,92.60
2023-02-12T18:36:58.955Z,92.70
2023-02-12T18:39:07.125Z,92.90
2023-02-12T18:41:15.205Z,92.90
2023-02-12T18:43:20.051Z,92.70
2023-02-12T18:45:24.995Z,92.50
2023-02-12T18:47:29.895Z,92.60
2023-02-12T18:49:34.787Z,92.80
2023-02-12T18:51:41.078Z,92.90
2023-02-12T18:53:46.612Z,92.60
2023-02-12T18:55:54.261Z,92.60
2023-02-12T18:57:59.151Z,92.70
2023-02-12T19:02:41.558Z,92.90
2023-02-12T19:04:46.672Z,93.00
2023-02-12T19:06:53.717Z,92.80
2023-02-12T19:08:59.145Z,92.90
2023-02-12T19:11:08.880Z,92.80
2023-02-12T19:13:14.104Z,92.90
2023-02-12T19:15:20.131Z,92.90
2023-02-12T19:17:25.057Z,93.00
2023-02-12T19:19:32.510Z,93.00
2023-02-12T19:21:39.513Z,92.90
2023-02-12T19:23:44.936Z,93.00
2023-02-12T19:25:49.874Z,93.00
2023-02-12T19:27:58.623Z,93.00
2023-02-12T19:30:04.334Z,92.80
2023-02-12T19:32:10.722Z,92.80
2023-02-12T19:34:20.489Z,93.00
2023-02-12T19:36:26.277Z,93.20
2023-02-12T19:38:31.840Z,93.00
2023-02-12T19:40:36.787Z,93.10
2023-02-12T19:42:41.773Z,93.20
2023-02-12T19:44:49.356Z,93.10
2023-02-12T19:46:56.545Z,93.20
2023-02-12T19:49:04.942Z,93.30
2023-02-12T19:51:11.564Z,93.20
2023-02-12T19:53:16.477Z,93.00
2023-02-12T19:55:21.402Z,93.10
2023-02-12T19:57:26.328Z,93.10
2023-02-12T19:59:32.158Z,93.00
2023-02-12T20:01:39.882Z,93.00
2023-02-12T20:03:45.887Z,93.00
2023-02-12T20:05:53.319Z,92.90
2023-02-12T20:07:58.278Z,92.80
2023-02-12T20:10:03.283Z,92.90
2023-02-12T20:12:09.011Z,93.00
2023-02-12T20:14:16.090Z,93.30
2023-02-12T20:16:24.185Z,93.10
2023-02-12T20:18:32.005Z,93.00
2023-02-12T20:20:40.982Z,93.00
2023-02-12T20:22:45.878Z,92.80
2023-02-12T20:24:50.818Z,92.50
2023-02-12T20:26:56.762Z,92.50
2023-02-12T20:29:05.200Z,92.40
2023-02-12T20:31:12.457Z,92.40
2023-02-12T20:33:17.670Z,92.70
2023-02-12T20:35:25.176Z,92.90
2023-02-12T20:37:30.178Z,92.90
2023-02-12T20:39:38.172Z,92.70
2023-02-12T20:41:44.033Z,92.50
2023-02-12T20:43:49.029Z,92.60
2023-02-12T20:45:53.952Z,92.70
2023-02-12T20:47:58.869Z,92.80
2023-02-12T20:50:04.126Z,92.80
2023-02-12T20:52:11.881Z,92.70
2023-02-12T20:54:16.816Z,92.70
2023-02-12T20:56:25.904Z,92.60
2023-02-12T20:58:31.213Z,92.90
2023-02-12T21:00:36.133Z,92.90
2023-02-12T21:02:41.101Z,93.00
2023-02-12T21:04:46.094Z,93.00
2023-02-12T21:06:52.020Z,93.10
2023-02-12T21:08:59.977Z,93.10
2023-02-12T21:11:09.856Z,93.30
2023-02-12T21:13:14.794Z,93.20
2023-02-12T21:15:19.982Z,93.10
2023-02-12T21:17:24.929Z,93.00
2023-02-12T21:19:30.066Z,93.10
2023-02-12T21:21:37.831Z,93.00
2023-02-12T21:23:43.416Z,93.10
2023-02-12T21:25:51.480Z,93.30
2023-02-12T21:27:56.386Z,93.20
2023-02-12T21:30:01.286Z,93.20
2023-02-12T21:32:06.415Z,93.40
2023-02-12T21:34:17.559Z,93.30
2023-02-12T21:36:24.585Z,93.30
2023-02-12T21:38:29.503Z,93.40
2023-02-12T21:42:44.552Z,93.70
2023-02-12T21:44:49.789Z,93.30
2023-02-12T21:46:55.500Z,93.10
2023-02-12T21:49:01.858Z,93.50
2023-02-12T21:51:07.904Z,93.40
2023-02-12T21:53:12.846Z,93.30
2023-02-12T21:55:18.064Z,93.50
2023-02-12T21:57:22.969Z,93.50
2023-02-12T21:59:32.523Z,93.50
2023-02-12T22:01:40.104Z,93.50
2023-02-12T22:03:45.929Z,93.50
2023-02-12T22:05:50.825Z,93.60
2023-02-12T22:07:55.744Z,93.70
2023-02-12T22:10:01.181Z,93.50
2023-02-12T22:12:06.957Z,93.50
2023-02-12T22:14:16.013Z,93.70
2023-02-12T22:16:27.025Z,93.70
2023-02-12T22:18:31.963Z,93.60
2023-02-12T22:20:37.108Z,93.40
2023-02-12T22:22:42.476Z,93.40
2023-02-12T22:24:47.614Z,93.50
2023-02-12T22:26:53.068Z,93.50
2023-02-12T22:29:00.086Z,93.40
2023-02-12T22:31:09.769Z,93.30
2023-02-12T22:33:17.271Z,93.50
2023-02-12T22:35:22.694Z,93.60
2023-02-12T22:37:28.028Z,93.70
2023-02-12T22:39:33.281Z,93.80
2023-02-12T22:41:41.965Z,93.80
2023-02-12T22:43:47.493Z,93.70
2023-02-12T22:45:52.458Z,93.60
2023-02-12T22:47:57.418Z,93.80
2023-02-12T22:50:05.279Z,93.80
2023-02-12T22:52:10.266Z,93.80
2023-02-12T22:54:17.700Z,93.70
2023-02-12T22:56:23.346Z,93.70
2023-02-12T22:58:28.294Z,93.80
2023-02-12T23:00:33.720Z,93.90
2023-02-12T23:02:39.212Z,93.90
2023-02-12T23:04:44.195Z,93.80
2023-02-12T23:06:52.110Z,93.70
2023-02-12T23:09:00.852Z,93.60
2023-02-12T23:11:07.969Z,93.60
2023-02-12T23:13:24.637Z,93.60
2023-02-12T23:15:35.073Z,93.60
2023-02-12T23:17:40.092Z,93.50
2023-02-12T23:19:45.301Z,93.40
2023-02-12T23:21:52.819Z,93.10
2023-02-12T23:23:59.347Z,93.20
2023-02-12T23:26:04.956Z,93.20
2023-02-12T23:28:10.409Z,93.20
2023-02-12T23:30:17.769Z,93.20
2023-02-12T23:32:23.138Z,93.20
2023-02-12T23:34:28.845Z,93.10
2023-02-12T23:36:33.850Z,93.30
2023-02-12T23:38:41.444Z,93.30
2023-02-12T23:40:47.176Z,93.40
2023-02-12T23:42:52.843Z,93.20
2023-02-12T23:44:58.107Z,93.20
2023-02-12T23:47:03.053Z,93.30
2023-02-12T23:49:08.451Z,93.20
2023-02-12T23:51:14.193Z,93.20
2023-02-12T23:53:19.423Z,93.30
2023-02-12T23:55:27.012Z,93.30
2023-02-12T23:57:32.078Z,93.30
2023-02-12T23:59:37.936Z,93.40
